Oboyan', Russia
Current Conditions -  °F | °C
As of 1:00 PM on Friday 31 Oct 2014 (Local Time) from UUOK Reporting Station
Smoke Smoke  
Wind Chill: 43°   Ceiling: 3000
Heat Index: 46°   Visibility: 2.5mi
Dew Point: 28°   Wind: 7mph
Humidity: 50%   Direction: 190°S
Pressure: 30.12"   Gusts: NA
Location:  51.21°N, 36.45°E
Report Text: UUOK 311000Z 19003MPS 4000 FU BKN030 08/M02 Q1020 NOSIG RMK30CLRD70
Loading
Personal Weather Stations






























Interactive Weather Map
Tropical Storm Tracking
New forecast layout! Learn more

10-Day Weather Forecast

Advertisements
Track Severe Weather on mobile